Terminal Aerodrome Forecast
Issued by NWS

Home | Current Version | Previous Version | Text Only | Print | Product List | Glossary On
Versions: 1 2 3 4 5 6 7 8 9 10 11 12 13 14 15 16 17 18 19 20
000
FTUS45 KGJT 261129
TAFMTJ
TAF
KMTJ 261129Z 2612/2712 14008KT P6SM -RA BKN040 OVC045
     FM261400 24004KT P6SM BKN035
     FM261800 33004KT P6SM BKN050
     FM262100 30005KT P6SM SCT080 SCT200
     FM270400 14006KT P6SM SCT200=

USA.gov is the U.S. government's official web portal to all federal, state and local government web resources and services.